sensor_id;sensor_type;location;lat;lon;timestamp;temperature;humidity
47338;DHT22;33069;51.970;5.892;2023-02-21T00:02:19;8.80;87.30
47338;DHT22;33069;51.970;5.892;2023-02-21T00:05:04;8.80;86.90
47338;DHT22;33069;51.970;5.892;2023-02-21T00:07:48;8.70;87.10
47338;DHT22;33069;51.970;5.892;2023-02-21T00:10:33;8.70;87.40
47338;DHT22;33069;51.970;5.892;2023-02-21T00:13:17;8.80;87.10
47338;DHT22;33069;51.970;5.892;2023-02-21T00:16:01;8.80;87.20
47338;DHT22;33069;51.970;5.892;2023-02-21T00:18:45;8.80;87.10
47338;DHT22;33069;51.970;5.892;2023-02-21T00:21:30;8.90;87.10
47338;DHT22;33069;51.970;5.892;2023-02-21T00:24:16;8.80;86.90
47338;DHT22;33069;51.970;5.892;2023-02-21T00:27:01;8.90;87.00
47338;DHT22;33069;51.970;5.892;2023-02-21T00:29:49;8.80;87.20
47338;DHT22;33069;51.970;5.892;2023-02-21T00:32:34;8.70;87.10
47338;DHT22;33069;51.970;5.892;2023-02-21T00:35:18;8.70;87.20
47338;DHT22;33069;51.970;5.892;2023-02-21T00:38:03;8.80;87.50
47338;DHT22;33069;51.970;5.892;2023-02-21T00:40:47;8.90;87.20
47338;DHT22;33069;51.970;5.892;2023-02-21T00:43:32;8.90;87.20
47338;DHT22;33069;51.970;5.892;2023-02-21T00:46:17;9.00;86.60
47338;DHT22;33069;51.970;5.892;2023-02-21T00:49:02;8.70;86.70
47338;DHT22;33069;51.970;5.892;2023-02-21T00:51:47;8.90;87.20
47338;DHT22;33069;51.970;5.892;2023-02-21T00:54:31;8.70;87.10
47338;DHT22;33069;51.970;5.892;2023-02-21T00:57:15;8.80;87.40
47338;DHT22;33069;51.970;5.892;2023-02-21T01:00:00;8.80;87.00
47338;DHT22;33069;51.970;5.892;2023-02-21T01:02:44;8.80;87.30
47338;DHT22;33069;51.970;5.892;2023-02-21T01:05:28;8.80;87.10
47338;DHT22;33069;51.970;5.892;2023-02-21T01:08:13;8.80;87.50
47338;DHT22;33069;51.970;5.892;2023-02-21T01:10:57;8.60;87.40
47338;DHT22;33069;51.970;5.892;2023-02-21T01:13:42;8.80;87.50
47338;DHT22;33069;51.970;5.892;2023-02-21T01:16:27;8.70;87.40
47338;DHT22;33069;51.970;5.892;2023-02-21T01:19:11;8.80;87.50
47338;DHT22;33069;51.970;5.892;2023-02-21T01:21:55;8.70;87.50
47338;DHT22;33069;51.970;5.892;2023-02-21T01:24:40;8.90;87.10
47338;DHT22;33069;51.970;5.892;2023-02-21T01:27:24;8.80;87.20
47338;DHT22;33069;51.970;5.892;2023-02-21T01:30:09;8.70;87.30
47338;DHT22;33069;51.970;5.892;2023-02-21T01:32:53;8.80;87.60
47338;DHT22;33069;51.970;5.892;2023-02-21T01:35:37;8.60;87.50
47338;DHT22;33069;51.970;5.892;2023-02-21T01:38:22;8.60;87.70
47338;DHT22;33069;51.970;5.892;2023-02-21T01:41:06;8.80;87.70
47338;DHT22;33069;51.970;5.892;2023-02-21T01:44:04;8.80;87.20
47338;DHT22;33069;51.970;5.892;2023-02-21T01:46:49;8.60;87.30
47338;DHT22;33069;51.970;5.892;2023-02-21T01:49:37;8.70;87.80
47338;DHT22;33069;51.970;5.892;2023-02-21T01:52:23;8.60;87.60
47338;DHT22;33069;51.970;5.892;2023-02-21T01:55:09;8.90;87.80
47338;DHT22;33069;51.970;5.892;2023-02-21T01:57:55;8.80;87.10
47338;DHT22;33069;51.970;5.892;2023-02-21T02:00:40;8.80;87.50
47338;DHT22;33069;51.970;5.892;2023-02-21T02:03:25;8.80;87.40
47338;DHT22;33069;51.970;5.892;2023-02-21T02:06:13;8.80;87.40
47338;DHT22;33069;51.970;5.892;2023-02-21T02:08:58;8.60;87.20
47338;DHT22;33069;51.970;5.892;2023-02-21T02:28:49;8.80;87.90
47338;DHT22;33069;51.970;5.892;2023-02-21T02:37:00;8.70;88.10
47338;DHT22;33069;51.970;5.892;2023-02-21T02:45:02;8.80;88.40
47338;DHT22;33069;51.970;5.892;2023-02-21T02:47:33;8.70;88.00
47338;DHT22;33069;51.970;5.892;2023-02-21T02:50:01;8.80;88.10
47338;DHT22;33069;51.970;5.892;2023-02-21T02:52:27;8.80;87.80
47338;DHT22;33069;51.970;5.892;2023-02-21T02:55:41;8.70;88.00
47338;DHT22;33069;51.970;5.892;2023-02-21T02:57:47;8.80;88.10
47338;DHT22;33069;51.970;5.892;2023-02-21T03:00:14;8.80;88.10
47338;DHT22;33069;51.970;5.892;2023-02-21T03:02:52;8.70;88.10
47338;DHT22;33069;51.970;5.892;2023-02-21T03:05:53;8.80;88.20
47338;DHT22;33069;51.970;5.892;2023-02-21T03:11:20;8.60;88.20
47338;DHT22;33069;51.970;5.892;2023-02-21T03:14:14;8.60;88.30
47338;DHT22;33069;51.970;5.892;2023-02-21T03:16:42;8.60;88.60
47338;DHT22;33069;51.970;5.892;2023-02-21T03:19:18;8.60;88.60
47338;DHT22;33069;51.970;5.892;2023-02-21T03:21:55;8.40;88.60
47338;DHT22;33069;51.970;5.892;2023-02-21T03:24:22;8.40;88.80
47338;DHT22;33069;51.970;5.892;2023-02-21T03:26:52;8.50;89.20
47338;DHT22;33069;51.970;5.892;2023-02-21T03:29:20;8.50;89.20
47338;DHT22;33069;51.970;5.892;2023-02-21T03:31:54;8.50;89.10
47338;DHT22;33069;51.970;5.892;2023-02-21T03:34:21;8.50;89.20
47338;DHT22;33069;51.970;5.892;2023-02-21T03:36:48;8.60;88.90
47338;DHT22;33069;51.970;5.892;2023-02-21T03:39:14;8.70;88.90
47338;DHT22;33069;51.970;5.892;2023-02-21T03:41:39;8.50;88.70
47338;DHT22;33069;51.970;5.892;2023-02-21T03:44:05;8.60;88.90
47338;DHT22;33069;51.970;5.892;2023-02-21T03:46:31;8.60;88.90
47338;DHT22;33069;51.970;5.892;2023-02-21T03:48:57;8.60;89.00
47338;DHT22;33069;51.970;5.892;2023-02-21T03:51:22;8.50;89.00
47338;DHT22;33069;51.970;5.892;2023-02-21T03:53:48;8.60;89.10
47338;DHT22;33069;51.970;5.892;2023-02-21T03:56:14;8.70;89.00
47338;DHT22;33069;51.970;5.892;2023-02-21T03:58:39;8.50;88.90
47338;DHT22;33069;51.970;5.892;2023-02-21T04:01:05;8.60;89.20
47338;DHT22;33069;51.970;5.892;2023-02-21T04:03:31;8.60;89.00
47338;DHT22;33069;51.970;5.892;2023-02-21T04:05:57;8.50;89.10
47338;DHT22;33069;51.970;5.892;2023-02-21T04:08:22;8.50;89.20
47338;DHT22;33069;51.970;5.892;2023-02-21T04:10:48;8.60;89.30
47338;DHT22;33069;51.970;5.892;2023-02-21T04:13:14;8.60;89.20
47338;DHT22;33069;51.970;5.892;2023-02-21T04:15:39;8.60;89.20
47338;DHT22;33069;51.970;5.892;2023-02-21T04:18:05;8.60;89.20
47338;DHT22;33069;51.970;5.892;2023-02-21T04:20:31;8.70;89.20
47338;DHT22;33069;51.970;5.892;2023-02-21T04:22:56;8.70;89.00
47338;DHT22;33069;51.970;5.892;2023-02-21T04:25:22;8.80;88.90
47338;DHT22;33069;51.970;5.892;2023-02-21T04:27:48;8.70;88.60
47338;DHT22;33069;51.970;5.892;2023-02-21T04:30:14;8.50;88.60
47338;DHT22;33069;51.970;5.892;2023-02-21T04:32:40;8.70;88.90
47338;DHT22;33069;51.970;5.892;2023-02-21T04:35:06;8.50;88.70
47338;DHT22;33069;51.970;5.892;2023-02-21T04:37:32;8.40;88.80
47338;DHT22;33069;51.970;5.892;2023-02-21T04:39:57;8.50;89.10
47338;DHT22;33069;51.970;5.892;2023-02-21T04:42:23;8.40;89.30
47338;DHT22;33069;51.970;5.892;2023-02-21T04:44:49;8.60;89.50
47338;DHT22;33069;51.970;5.892;2023-02-21T04:47:15;8.50;89.20
47338;DHT22;33069;51.970;5.892;2023-02-21T04:49:40;8.50;89.30
47338;DHT22;33069;51.970;5.892;2023-02-21T04:52:06;8.70;89.30
47338;DHT22;33069;51.970;5.892;2023-02-21T04:54:32;8.60;89.00
47338;DHT22;33069;51.970;5.892;2023-02-21T04:56:57;8.70;89.30
47338;DHT22;33069;51.970;5.892;2023-02-21T04:59:23;8.60;89.10
47338;DHT22;33069;51.970;5.892;2023-02-21T05:01:49;8.40;89.10
47338;DHT22;33069;51.970;5.892;2023-02-21T05:04:15;8.50;89.20
47338;DHT22;33069;51.970;5.892;2023-02-21T05:06:40;8.50;89.20
47338;DHT22;33069;51.970;5.892;2023-02-21T05:09:06;8.70;89.10
47338;DHT22;33069;51.970;5.892;2023-02-21T05:11:33;8.70;88.80
47338;DHT22;33069;51.970;5.892;2023-02-21T05:13:59;8.70;88.70
47338;DHT22;33069;51.970;5.892;2023-02-21T05:16:25;8.70;88.80
47338;DHT22;33069;51.970;5.892;2023-02-21T05:18:50;8.30;88.60
47338;DHT22;33069;51.970;5.892;2023-02-21T05:21:18;8.40;88.90
47338;DHT22;33069;51.970;5.892;2023-02-21T05:23:44;8.50;89.20
47338;DHT22;33069;51.970;5.892;2023-02-21T05:26:32;8.60;89.30
47338;DHT22;33069;51.970;5.892;2023-02-21T05:28:58;8.60;89.20
47338;DHT22;33069;51.970;5.892;2023-02-21T05:31:24;8.50;89.10
47338;DHT22;33069;51.970;5.892;2023-02-21T05:33:50;8.40;89.10
47338;DHT22;33069;51.970;5.892;2023-02-21T05:36:15;8.30;89.10
47338;DHT22;33069;51.970;5.892;2023-02-21T05:38:47;8.60;89.50
47338;DHT22;33069;51.970;5.892;2023-02-21T05:41:14;8.50;89.30
47338;DHT22;33069;51.970;5.892;2023-02-21T05:43:43;8.50;89.40
47338;DHT22;33069;51.970;5.892;2023-02-21T05:46:20;8.70;89.40
47338;DHT22;33069;51.970;5.892;2023-02-21T05:48:47;8.60;89.20
47338;DHT22;33069;51.970;5.892;2023-02-21T05:51:14;8.70;89.00
47338;DHT22;33069;51.970;5.892;2023-02-21T05:53:40;8.70;88.90
47338;DHT22;33069;51.970;5.892;2023-02-21T05:56:06;8.50;88.80
47338;DHT22;33069;51.970;5.892;2023-02-21T05:58:32;8.70;89.10
47338;DHT22;33069;51.970;5.892;2023-02-21T06:00:58;8.60;88.90
47338;DHT22;33069;51.970;5.892;2023-02-21T06:03:23;8.40;89.00
47338;DHT22;33069;51.970;5.892;2023-02-21T06:05:49;8.20;89.20
47338;DHT22;33069;51.970;5.892;2023-02-21T06:08:15;8.30;89.50
47338;DHT22;33069;51.970;5.892;2023-02-21T06:10:40;8.50;89.80
47338;DHT22;33069;51.970;5.892;2023-02-21T06:13:06;8.40;89.70
47338;DHT22;33069;51.970;5.892;2023-02-21T06:15:32;8.30;89.70
47338;DHT22;33069;51.970;5.892;2023-02-21T06:17:58;8.40;89.90
47338;DHT22;33069;51.970;5.892;2023-02-21T06:20:23;8.60;90.00
47338;DHT22;33069;51.970;5.892;2023-02-21T06:22:49;8.80;89.80
47338;DHT22;33069;51.970;5.892;2023-02-21T06:25:15;8.60;89.40
47338;DHT22;33069;51.970;5.892;2023-02-21T06:27:41;8.70;89.40
47338;DHT22;33069;51.970;5.892;2023-02-21T06:30:08;8.60;89.30
47338;DHT22;33069;51.970;5.892;2023-02-21T06:32:34;8.40;89.40
47338;DHT22;33069;51.970;5.892;2023-02-21T06:35:01;8.60;89.90
47338;DHT22;33069;51.970;5.892;2023-02-21T06:37:26;8.40;89.80
47338;DHT22;33069;51.970;5.892;2023-02-21T06:39:53;8.50;90.00
47338;DHT22;33069;51.970;5.892;2023-02-21T06:42:18;8.60;90.00
47338;DHT22;33069;51.970;5.892;2023-02-21T06:44:46;8.40;89.90
47338;DHT22;33069;51.970;5.892;2023-02-21T06:47:12;8.50;90.00
47338;DHT22;33069;51.970;5.892;2023-02-21T06:49:38;8.40;90.00
47338;DHT22;33069;51.970;5.892;2023-02-21T06:52:04;8.30;90.10
47338;DHT22;33069;51.970;5.892;2023-02-21T06:54:30;8.40;90.30
47338;DHT22;33069;51.970;5.892;2023-02-21T06:56:56;8.60;90.40
47338;DHT22;33069;51.970;5.892;2023-02-21T06:59:22;8.40;90.30
47338;DHT22;33069;51.970;5.892;2023-02-21T07:01:47;8.60;90.30
47338;DHT22;33069;51.970;5.892;2023-02-21T07:04:13;8.60;90.10
47338;DHT22;33069;51.970;5.892;2023-02-21T07:06:39;8.40;90.00
47338;DHT22;33069;51.970;5.892;2023-02-21T07:09:05;8.50;90.20
47338;DHT22;33069;51.970;5.892;2023-02-21T07:11:32;8.20;90.20
47338;DHT22;33069;51.970;5.892;2023-02-21T07:13:58;8.50;90.40
47338;DHT22;33069;51.970;5.892;2023-02-21T07:16:24;8.50;90.40
47338;DHT22;33069;51.970;5.892;2023-02-21T07:18:50;8.40;90.40
47338;DHT22;33069;51.970;5.892;2023-02-21T07:21:17;8.50;90.50
47338;DHT22;33069;51.970;5.892;2023-02-21T07:23:44;8.40;90.40
47338;DHT22;33069;51.970;5.892;2023-02-21T07:26:11;8.40;90.50
47338;DHT22;33069;51.970;5.892;2023-02-21T07:28:37;8.30;90.50
47338;DHT22;33069;51.970;5.892;2023-02-21T07:31:03;8.40;90.60
47338;DHT22;33069;51.970;5.892;2023-02-21T07:33:28;8.50;90.80
47338;DHT22;33069;51.970;5.892;2023-02-21T07:35:54;8.50;90.70
47338;DHT22;33069;51.970;5.892;2023-02-21T07:38:26;8.40;90.60
47338;DHT22;33069;51.970;5.892;2023-02-21T07:41:00;8.50;90.70
47338;DHT22;33069;51.970;5.892;2023-02-21T07:43:28;8.40;90.80
47338;DHT22;33069;51.970;5.892;2023-02-21T07:45:54;8.40;90.80
47338;DHT22;33069;51.970;5.892;2023-02-21T07:48:20;8.30;90.80
47338;DHT22;33069;51.970;5.892;2023-02-21T07:50:46;8.40;90.90
47338;DHT22;33069;51.970;5.892;2023-02-21T07:53:13;8.30;90.90
47338;DHT22;33069;51.970;5.892;2023-02-21T07:55:39;8.40;90.90
47338;DHT22;33069;51.970;5.892;2023-02-21T07:58:05;8.30;90.90
47338;DHT22;33069;51.970;5.892;2023-02-21T08:00:31;8.40;91.10
47338;DHT22;33069;51.970;5.892;2023-02-21T08:02:57;8.30;91.10
47338;DHT22;33069;51.970;5.892;2023-02-21T08:05:23;8.40;91.20
47338;DHT22;33069;51.970;5.892;2023-02-21T08:07:49;8.50;91.10
47338;DHT22;33069;51.970;5.892;2023-02-21T08:10:23;8.50;91.10
47338;DHT22;33069;51.970;5.892;2023-02-21T08:12:49;8.50;91.00
47338;DHT22;33069;51.970;5.892;2023-02-21T08:15:14;8.40;91.00
47338;DHT22;33069;51.970;5.892;2023-02-21T08:17:40;8.30;90.90
47338;DHT22;33069;51.970;5.892;2023-02-21T08:20:06;8.30;91.00
47338;DHT22;33069;51.970;5.892;2023-02-21T08:22:32;8.40;91.10
47338;DHT22;33069;51.970;5.892;2023-02-21T08:24:58;8.40;91.20
47338;DHT22;33069;51.970;5.892;2023-02-21T08:27:24;8.30;91.20
47338;DHT22;33069;51.970;5.892;2023-02-21T08:29:51;8.50;91.30
47338;DHT22;33069;51.970;5.892;2023-02-21T08:32:18;8.50;91.10
47338;DHT22;33069;51.970;5.892;2023-02-21T08:34:44;8.30;91.00
47338;DHT22;33069;51.970;5.892;2023-02-21T08:37:10;8.40;91.00
47338;DHT22;33069;51.970;5.892;2023-02-21T08:39:45;8.30;91.00
47338;DHT22;33069;51.970;5.892;2023-02-21T08:42:12;8.20;91.10
47338;DHT22;33069;51.970;5.892;2023-02-21T08:44:38;8.30;91.30
47338;DHT22;33069;51.970;5.892;2023-02-21T08:47:04;8.40;91.30
47338;DHT22;33069;51.970;5.892;2023-02-21T08:49:29;8.30;91.30
47338;DHT22;33069;51.970;5.892;2023-02-21T08:51:55;8.30;91.30
47338;DHT22;33069;51.970;5.892;2023-02-21T08:54:21;8.30;91.20
47338;DHT22;33069;51.970;5.892;2023-02-21T08:56:46;8.50;91.30
47338;DHT22;33069;51.970;5.892;2023-02-21T08:59:14;8.50;91.30
47338;DHT22;33069;51.970;5.892;2023-02-21T09:01:39;8.50;91.00
47338;DHT22;33069;51.970;5.892;2023-02-21T09:04:05;8.30;90.90
47338;DHT22;33069;51.970;5.892;2023-02-21T09:06:31;8.50;91.00
47338;DHT22;33069;51.970;5.892;2023-02-21T09:08:57;8.60;90.90
47338;DHT22;33069;51.970;5.892;2023-02-21T09:11:23;8.70;90.80
47338;DHT22;33069;51.970;5.892;2023-02-21T09:13:49;8.50;90.50
47338;DHT22;33069;51.970;5.892;2023-02-21T09:16:14;8.50;90.60
47338;DHT22;33069;51.970;5.892;2023-02-21T09:18:40;8.50;90.60
47338;DHT22;33069;51.970;5.892;2023-02-21T09:21:06;8.40;90.60
47338;DHT22;33069;51.970;5.892;2023-02-21T09:23:32;8.50;90.60
47338;DHT22;33069;51.970;5.892;2023-02-21T09:25:57;8.40;90.70
47338;DHT22;33069;51.970;5.892;2023-02-21T09:28:23;8.70;90.70
47338;DHT22;33069;51.970;5.892;2023-02-21T09:30:49;8.40;90.40
47338;DHT22;33069;51.970;5.892;2023-02-21T09:33:16;8.40;90.50
47338;DHT22;33069;51.970;5.892;2023-02-21T09:35:41;8.40;90.50
47338;DHT22;33069;51.970;5.892;2023-02-21T09:38:07;8.60;90.60
47338;DHT22;33069;51.970;5.892;2023-02-21T09:45:43;8.50;90.50
47338;DHT22;33069;51.970;5.892;2023-02-21T09:48:14;8.70;90.60
47338;DHT22;33069;51.970;5.892;2023-02-21T09:50:53;8.70;90.30
47338;DHT22;33069;51.970;5.892;2023-02-21T09:53:32;8.70;90.20
47338;DHT22;33069;51.970;5.892;2023-02-21T09:56:03;8.70;90.10
47338;DHT22;33069;51.970;5.892;2023-02-21T09:58:30;8.70;90.00
47338;DHT22;33069;51.970;5.892;2023-02-21T10:01:03;8.80;89.70
47338;DHT22;33069;51.970;5.892;2023-02-21T10:06:18;8.60;89.50
47338;DHT22;33069;51.970;5.892;2023-02-21T10:12:16;8.80;89.40
47338;DHT22;33069;51.970;5.892;2023-02-21T10:15:15;8.70;89.30
47338;DHT22;33069;51.970;5.892;2023-02-21T10:18:03;8.60;89.50
47338;DHT22;33069;51.970;5.892;2023-02-21T10:20:52;8.70;89.70
47338;DHT22;33069;51.970;5.892;2023-02-21T10:23:40;8.80;89.60
47338;DHT22;33069;51.970;5.892;2023-02-21T10:26:17;8.90;89.60
47338;DHT22;33069;51.970;5.892;2023-02-21T10:28:44;8.80;89.60
47338;DHT22;33069;51.970;5.892;2023-02-21T10:31:19;8.90;89.60
47338;DHT22;33069;51.970;5.892;2023-02-21T10:33:46;9.00;89.30
47338;DHT22;33069;51.970;5.892;2023-02-21T10:36:20;8.90;89.20
47338;DHT22;33069;51.970;5.892;2023-02-21T10:41:28;8.90;89.00
47338;DHT22;33069;51.970;5.892;2023-02-21T10:44:12;9.00;89.10
47338;DHT22;33069;51.970;5.892;2023-02-21T10:46:53;9.10;88.80
47338;DHT22;33069;51.970;5.892;2023-02-21T10:49:24;9.10;88.40
47338;DHT22;33069;51.970;5.892;2023-02-21T10:54:32;9.10;87.80
47338;DHT22;33069;51.970;5.892;2023-02-21T10:56:58;9.20;87.80
47338;DHT22;33069;51.970;5.892;2023-02-21T10:59:28;9.20;87.90
47338;DHT22;33069;51.970;5.892;2023-02-21T11:01:56;9.20;87.80
47338;DHT22;33069;51.970;5.892;2023-02-21T11:04:30;9.10;88.10
47338;DHT22;33069;51.970;5.892;2023-02-21T11:07:08;9.00;88.10
47338;DHT22;33069;51.970;5.892;2023-02-21T11:09:41;9.20;88.40
47338;DHT22;33069;51.970;5.892;2023-02-21T11:12:23;9.20;88.50
47338;DHT22;33069;51.970;5.892;2023-02-21T11:17:28;9.30;88.00
47338;DHT22;33069;51.970;5.892;2023-02-21T11:22:36;9.10;88.30
47338;DHT22;33069;51.970;5.892;2023-02-21T11:25:05;9.20;88.40
47338;DHT22;33069;51.970;5.892;2023-02-21T11:27:36;9.20;88.20
47338;DHT22;33069;51.970;5.892;2023-02-21T11:30:18;9.20;88.20
47338;DHT22;33069;51.970;5.892;2023-02-21T11:32:50;9.00;88.10
47338;DHT22;33069;51.970;5.892;2023-02-21T11:35:21;9.00;88.30
47338;DHT22;33069;51.970;5.892;2023-02-21T11:37:58;9.30;88.50
47338;DHT22;33069;51.970;5.892;2023-02-21T11:41:00;9.40;88.00
47338;DHT22;33069;51.970;5.892;2023-02-21T11:43:27;9.30;87.90
47338;DHT22;33069;51.970;5.892;2023-02-21T11:46:20;9.00;87.90
47338;DHT22;33069;51.970;5.892;2023-02-21T11:49:23;9.30;88.40
47338;DHT22;33069;51.970;5.892;2023-02-21T11:54:12;9.10;88.00
47338;DHT22;33069;51.970;5.892;2023-02-21T11:56:51;9.20;88.10
47338;DHT22;33069;51.970;5.892;2023-02-21T12:16:43;9.30;88.10
47338;DHT22;33069;51.970;5.892;2023-02-21T12:24:49;9.30;87.90
47338;DHT22;33069;51.970;5.892;2023-02-21T12:30:33;9.20;88.00
47338;DHT22;33069;51.970;5.892;2023-02-21T12:35:48;9.20;88.10
47338;DHT22;33069;51.970;5.892;2023-02-21T12:43:45;9.20;88.10
47338;DHT22;33069;51.970;5.892;2023-02-21T12:51:30;9.20;88.10
47338;DHT22;33069;51.970;5.892;2023-02-21T12:54:19;9.20;88.20
47338;DHT22;33069;51.970;5.892;2023-02-21T12:57:03;9.20;88.30
47338;DHT22;33069;51.970;5.892;2023-02-21T13:00:13;9.00;88.30
47338;DHT22;33069;51.970;5.892;2023-02-21T13:03:44;9.30;88.70
47338;DHT22;33069;51.970;5.892;2023-02-21T13:06:02;9.30;88.60
47338;DHT22;33069;51.970;5.892;2023-02-21T13:11:28;9.00;88.20
47338;DHT22;33069;51.970;5.892;2023-02-21T13:13:57;9.30;88.50
47338;DHT22;33069;51.970;5.892;2023-02-21T13:16:24;9.50;88.40
47338;DHT22;33069;51.970;5.892;2023-02-21T13:29:42;9.30;88.00
47338;DHT22;33069;51.970;5.892;2023-02-21T13:32:14;9.40;87.90
47338;DHT22;33069;51.970;5.892;2023-02-21T13:34:59;9.00;87.70
47338;DHT22;33069;51.970;5.892;2023-02-21T13:37:29;9.20;88.00
47338;DHT22;33069;51.970;5.892;2023-02-21T13:39:58;9.30;88.00
47338;DHT22;33069;51.970;5.892;2023-02-21T13:42:31;9.10;87.90
47338;DHT22;33069;51.970;5.892;2023-02-21T13:45:23;9.30;88.00
47338;DHT22;33069;51.970;5.892;2023-02-21T13:58:35;9.40;87.80
47338;DHT22;33069;51.970;5.892;2023-02-21T14:03:39;9.30;87.40
47338;DHT22;33069;51.970;5.892;2023-02-21T14:08:49;9.40;87.70
47338;DHT22;33069;51.970;5.892;2023-02-21T14:11:22;9.40;87.70
47338;DHT22;33069;51.970;5.892;2023-02-21T14:13:57;9.50;87.90
47338;DHT22;33069;51.970;5.892;2023-02-21T14:16:33;9.40;87.80
47338;DHT22;33069;51.970;5.892;2023-02-21T14:21:46;9.60;87.40
47338;DHT22;33069;51.970;5.892;2023-02-21T14:24:20;9.40;87.30
47338;DHT22;33069;51.970;5.892;2023-02-21T14:27:03;9.50;87.50
47338;DHT22;33069;51.970;5.892;2023-02-21T14:32:46;9.60;87.30
47338;DHT22;33069;51.970;5.892;2023-02-21T14:43:31;9.40;86.90
47338;DHT22;33069;51.970;5.892;2023-02-21T14:46:19;9.40;87.40
47338;DHT22;33069;51.970;5.892;2023-02-21T14:55:37;9.70;87.60
47338;DHT22;33069;51.970;5.892;2023-02-21T15:00:32;9.50;87.20
47338;DHT22;33069;51.970;5.892;2023-02-21T15:03:16;9.70;86.90
47338;DHT22;33069;51.970;5.892;2023-02-21T15:08:26;9.80;86.50
47338;DHT22;33069;51.970;5.892;2023-02-21T15:10:57;9.80;86.40
47338;DHT22;33069;51.970;5.892;2023-02-21T15:13:32;9.60;86.30
47338;DHT22;33069;51.970;5.892;2023-02-21T15:16:02;9.50;86.80
47338;DHT22;33069;51.970;5.892;2023-02-21T15:18:40;9.80;87.30
47338;DHT22;33069;51.970;5.892;2023-02-21T15:23:33;9.60;87.20
47338;DHT22;33069;51.970;5.892;2023-02-21T15:26:22;9.60;87.00
47338;DHT22;33069;51.970;5.892;2023-02-21T15:29:08;9.70;87.10
47338;DHT22;33069;51.970;5.892;2023-02-21T15:31:38;9.70;86.70
47338;DHT22;33069;51.970;5.892;2023-02-21T15:34:04;9.90;86.00
47338;DHT22;33069;51.970;5.892;2023-02-21T15:36:31;10.00;84.60
47338;DHT22;33069;51.970;5.892;2023-02-21T15:39:09;9.80;85.10
47338;DHT22;33069;51.970;5.892;2023-02-21T15:41:48;9.50;85.30
47338;DHT22;33069;51.970;5.892;2023-02-21T15:44:21;9.60;85.90
47338;DHT22;33069;51.970;5.892;2023-02-21T15:47:01;9.70;86.10
47338;DHT22;33069;51.970;5.892;2023-02-21T15:49:37;9.70;86.30
47338;DHT22;33069;51.970;5.892;2023-02-21T15:52:05;9.50;85.60
47338;DHT22;33069;51.970;5.892;2023-02-21T15:54:33;9.70;85.90
47338;DHT22;33069;51.970;5.892;2023-02-21T15:59:27;9.70;85.40
47338;DHT22;33069;51.970;5.892;2023-02-21T16:02:15;9.50;85.30
47338;DHT22;33069;51.970;5.892;2023-02-21T16:04:46;9.80;85.90
47338;DHT22;33069;51.970;5.892;2023-02-21T16:07:17;9.70;84.80
47338;DHT22;33069;51.970;5.892;2023-02-21T16:09:48;9.80;85.20
47338;DHT22;33069;51.970;5.892;2023-02-21T16:12:25;9.40;85.10
47338;DHT22;33069;51.970;5.892;2023-02-21T16:15:00;9.30;85.50
47338;DHT22;33069;51.970;5.892;2023-02-21T16:17:31;9.30;86.20
47338;DHT22;33069;51.970;5.892;2023-02-21T16:20:18;9.40;86.50
47338;DHT22;33069;51.970;5.892;2023-02-21T16:22:50;9.40;86.70
47338;DHT22;33069;51.970;5.892;2023-02-21T16:25:22;9.50;86.60
47338;DHT22;33069;51.970;5.892;2023-02-21T16:27:53;9.50;86.20
47338;DHT22;33069;51.970;5.892;2023-02-21T16:30:24;9.40;86.30
47338;DHT22;33069;51.970;5.892;2023-02-21T16:32:52;9.30;86.10
47338;DHT22;33069;51.970;5.892;2023-02-21T16:35:21;9.10;86.10
47338;DHT22;33069;51.970;5.892;2023-02-21T16:37:58;9.20;86.60
47338;DHT22;33069;51.970;5.892;2023-02-21T16:40:32;9.10;86.50
47338;DHT22;33069;51.970;5.892;2023-02-21T16:42:58;9.10;86.50
47338;DHT22;33069;51.970;5.892;2023-02-21T16:45:27;9.10;86.70
47338;DHT22;33069;51.970;5.892;2023-02-21T16:48:04;9.10;86.70
47338;DHT22;33069;51.970;5.892;2023-02-21T16:50:36;9.10;86.90
47338;DHT22;33069;51.970;5.892;2023-02-21T16:53:03;9.00;86.60
47338;DHT22;33069;51.970;5.892;2023-02-21T16:55:29;9.30;86.60
47338;DHT22;33069;51.970;5.892;2023-02-21T16:58:05;9.00;86.10
47338;DHT22;33069;51.970;5.892;2023-02-21T17:00:31;9.30;86.70
47338;DHT22;33069;51.970;5.892;2023-02-21T17:02:58;9.10;85.60
47338;DHT22;33069;51.970;5.892;2023-02-21T17:05:24;9.10;85.40
47338;DHT22;33069;51.970;5.892;2023-02-21T17:07:53;9.00;85.80
47338;DHT22;33069;51.970;5.892;2023-02-21T17:10:20;9.20;86.10
47338;DHT22;33069;51.970;5.892;2023-02-21T17:12:46;9.10;85.70
47338;DHT22;33069;51.970;5.892;2023-02-21T17:15:12;9.00;85.60
47338;DHT22;33069;51.970;5.892;2023-02-21T17:17:39;9.30;85.90
47338;DHT22;33069;51.970;5.892;2023-02-21T17:20:06;9.30;85.10
47338;DHT22;33069;51.970;5.892;2023-02-21T17:22:32;9.20;85.20
47338;DHT22;33069;51.970;5.892;2023-02-21T17:24:58;9.10;85.10
47338;DHT22;33069;51.970;5.892;2023-02-21T17:27:24;9.40;85.40
47338;DHT22;33069;51.970;5.892;2023-02-21T17:29:49;9.40;84.90
47338;DHT22;33069;51.970;5.892;2023-02-21T17:32:15;9.10;84.70
47338;DHT22;33069;51.970;5.892;2023-02-21T17:34:42;9.20;85.50
47338;DHT22;33069;51.970;5.892;2023-02-21T17:37:08;9.40;85.30
47338;DHT22;33069;51.970;5.892;2023-02-21T17:39:35;9.10;84.70
47338;DHT22;33069;51.970;5.892;2023-02-21T17:42:01;9.20;85.30
47338;DHT22;33069;51.970;5.892;2023-02-21T17:44:27;8.90;85.40
47338;DHT22;33069;51.970;5.892;2023-02-21T17:46:55;9.10;86.00
47338;DHT22;33069;51.970;5.892;2023-02-21T17:49:26;8.90;85.90
47338;DHT22;33069;51.970;5.892;2023-02-21T17:51:52;8.90;86.20
47338;DHT22;33069;51.970;5.892;2023-02-21T17:54:21;8.80;86.50
47338;DHT22;33069;51.970;5.892;2023-02-21T17:56:48;8.80;86.70
47338;DHT22;33069;51.970;5.892;2023-02-21T17:59:14;8.80;86.90
47338;DHT22;33069;51.970;5.892;2023-02-21T18:01:40;9.00;87.10
47338;DHT22;33069;51.970;5.892;2023-02-21T18:04:06;9.10;87.00
47338;DHT22;33069;51.970;5.892;2023-02-21T18:06:32;8.90;86.80
47338;DHT22;33069;51.970;5.892;2023-02-21T18:08:58;8.90;86.80
47338;DHT22;33069;51.970;5.892;2023-02-21T18:11:25;9.00;86.70
47338;DHT22;33069;51.970;5.892;2023-02-21T18:13:51;8.80;86.60
47338;DHT22;33069;51.970;5.892;2023-02-21T18:16:17;9.10;87.20
47338;DHT22;33069;51.970;5.892;2023-02-21T18:18:43;8.90;86.60
47338;DHT22;33069;51.970;5.892;2023-02-21T18:21:10;8.80;86.60
47338;DHT22;33069;51.970;5.892;2023-02-21T18:23:35;8.80;86.80
47338;DHT22;33069;51.970;5.892;2023-02-21T18:26:03;8.80;86.90
47338;DHT22;33069;51.970;5.892;2023-02-21T18:28:29;8.80;87.10
47338;DHT22;33069;51.970;5.892;2023-02-21T18:30:55;8.80;87.10
47338;DHT22;33069;51.970;5.892;2023-02-21T18:33:22;8.70;87.00
47338;DHT22;33069;51.970;5.892;2023-02-21T18:35:48;8.70;87.10
47338;DHT22;33069;51.970;5.892;2023-02-21T18:38:15;8.80;87.10
47338;DHT22;33069;51.970;5.892;2023-02-21T18:40:41;8.70;86.90
47338;DHT22;33069;51.970;5.892;2023-02-21T18:43:16;8.60;87.10
47338;DHT22;33069;51.970;5.892;2023-02-21T18:45:42;8.60;87.20
47338;DHT22;33069;51.970;5.892;2023-02-21T18:48:08;8.60;87.40
47338;DHT22;33069;51.970;5.892;2023-02-21T18:50:33;8.50;87.40